createdAt,value
2019-05-22T00:01:50.067Z,15.43
2019-05-22T00:05:58.263Z,14.93
2019-05-22T00:10:07.414Z,14.77
2019-05-22T00:14:15.093Z,15.40
2019-05-22T00:18:22.065Z,16.63
2019-05-22T00:22:30.332Z,17.17
2019-05-22T00:26:37.269Z,16.90
2019-05-22T00:30:47.577Z,16.90
2019-05-22T00:34:56.779Z,17.77
2019-05-22T00:39:05.383Z,17.13
2019-05-22T00:43:14.386Z,17.13
2019-05-22T00:47:23.775Z,18.63
2019-05-22T00:51:45.718Z,17.97
2019-05-22T00:56:01.988Z,17.27
2019-05-22T01:00:27.846Z,18.23
2019-05-22T01:04:38.009Z,18.07
2019-05-22T01:08:56.725Z,19.07
2019-05-22T01:13:04.620Z,17.83
2019-05-22T01:17:14.735Z,18.47
2019-05-22T01:21:24.726Z,17.40
2019-05-22T01:25:34.142Z,16.50
2019-05-22T01:29:41.757Z,16.67
2019-05-22T01:34:00.257Z,17.07
2019-05-22T01:38:11.064Z,18.17
2019-05-22T01:42:22.765Z,17.60
2019-05-22T01:46:34.361Z,18.30
2019-05-22T01:50:51.929Z,18.47
2019-05-22T01:54:59.890Z,17.83
2019-05-22T01:59:08.376Z,17.90
2019-05-22T02:03:17.609Z,17.50
2019-05-22T02:07:28.504Z,18.27
2019-05-22T02:11:38.136Z,18.30
2019-05-22T02:15:52.409Z,18.40
2019-05-22T02:20:00.002Z,19.23
2019-05-22T02:24:09.410Z,18.43
2019-05-22T02:28:16.553Z,18.07
2019-05-22T02:32:24.028Z,16.93
2019-05-22T02:36:32.878Z,16.57
2019-05-22T02:40:43.015Z,18.23
2019-05-22T02:44:50.316Z,17.70
2019-05-22T02:48:59.227Z,17.93
2019-05-22T02:53:11.377Z,18.17
2019-05-22T02:57:19.253Z,15.97
2019-05-22T03:01:28.139Z,16.13
2019-05-22T03:05:35.830Z,15.97
2019-05-22T03:09:46.581Z,14.83
2019-05-22T03:14:05.405Z,15.70
2019-05-22T03:18:14.127Z,15.63
2019-05-22T03:22:30.994Z,14.87
2019-05-22T03:26:48.710Z,14.70
2019-05-22T03:30:57.058Z,15.97
2019-05-22T03:35:05.041Z,15.53
2019-05-22T03:39:14.011Z,15.97
2019-05-22T03:43:24.586Z,15.30
2019-05-22T03:47:31.864Z,17.40
2019-05-22T03:51:39.149Z,18.47
2019-05-22T03:55:46.845Z,18.13
2019-05-22T03:59:54.751Z,17.47
2019-05-22T04:04:03.265Z,18.23
2019-05-22T04:08:11.098Z,17.77
2019-05-22T04:12:18.510Z,17.67
2019-05-22T04:16:26.835Z,19.40
2019-05-22T04:20:33.840Z,17.83
2019-05-22T04:24:42.175Z,18.37
2019-05-22T04:28:53.022Z,17.60
2019-05-22T04:33:00.384Z,18.23
2019-05-22T04:37:09.238Z,18.10
2019-05-22T04:41:16.637Z,18.03
2019-05-22T04:45:25.672Z,16.60
2019-05-22T04:49:34.214Z,17.73
2019-05-22T04:53:41.365Z,17.47
2019-05-22T04:57:48.484Z,18.77
2019-05-22T05:01:55.533Z,17.80
2019-05-22T05:06:06.363Z,16.80
2019-05-22T05:10:12.226Z,17.77
2019-05-22T05:14:19.037Z,16.73
2019-05-22T05:18:26.287Z,16.27
2019-05-22T05:22:45.408Z,15.77
2019-05-22T05:26:53.152Z,14.87
2019-05-22T05:30:59.956Z,15.70
2019-05-22T05:35:09.866Z,15.07
2019-05-22T05:40:21.128Z,14.37
2019-05-22T05:44:28.166Z,14.60
2019-05-22T05:48:35.895Z,13.00
2019-05-22T05:52:44.050Z,12.30
2019-05-22T05:56:51.988Z,15.33
2019-05-22T06:01:09.886Z,9.17
2019-05-22T06:05:17.751Z,8.17
2019-05-22T06:09:25.947Z,7.47
2019-05-22T06:13:35.494Z,7.53
2019-05-22T06:18:37.444Z,7.93
2019-05-22T06:23:05.525Z,7.27
2019-05-22T06:27:30.562Z,6.50
2019-05-22T06:31:51.874Z,6.50
2019-05-22T06:36:00.997Z,6.00
2019-05-22T06:40:09.867Z,5.90
2019-05-22T06:44:44.494Z,5.40
2019-05-22T06:49:13.906Z,5.23
2019-05-22T06:58:50.869Z,5.03
2019-05-22T07:02:57.779Z,6.13
2019-05-22T07:07:11.825Z,6.00
2019-05-22T07:11:19.130Z,5.30
2019-05-22T07:15:52.447Z,5.10
2019-05-22T07:19:59.852Z,5.43
2019-05-22T07:24:07.978Z,6.13
2019-05-22T07:28:20.490Z,5.90
2019-05-22T07:32:31.140Z,6.63
2019-05-22T07:36:39.738Z,7.40
2019-05-22T07:40:50.381Z,7.53
2019-05-22T07:44:57.152Z,8.60
2019-05-22T07:49:05.970Z,7.97
2019-05-22T07:53:17.677Z,8.17
2019-05-22T07:57:27.548Z,8.30
2019-05-22T08:01:35.140Z,6.57
2019-05-22T08:05:45.326Z,6.40
2019-05-22T08:09:52.819Z,6.20
2019-05-22T08:14:00.511Z,5.97
2019-05-22T08:18:08.144Z,7.50
2019-05-22T08:22:17.116Z,7.27
2019-05-22T08:26:24.832Z,6.97
2019-05-22T08:30:31.877Z,8.17
2019-05-22T08:34:40.925Z,6.67
2019-05-22T08:38:47.792Z,6.17
2019-05-22T08:42:54.928Z,6.50
2019-05-22T08:47:20.413Z,5.93
2019-05-22T08:51:29.183Z,5.70
2019-05-22T08:55:37.341Z,14.37
2019-05-22T08:59:45.534Z,6.57
2019-05-22T09:03:52.587Z,5.43
2019-05-22T09:07:59.509Z,6.47
2019-05-22T09:12:08.335Z,5.80
2019-05-22T09:16:16.554Z,5.40
2019-05-22T09:20:24.054Z,5.83
2019-05-22T09:24:32.394Z,5.20
2019-05-22T09:28:39.400Z,6.83
2019-05-22T09:32:47.651Z,6.93
2019-05-22T09:36:54.620Z,7.90
2019-05-22T09:41:02.244Z,7.93
2019-05-22T09:45:11.598Z,7.70
2019-05-22T09:49:18.506Z,8.70
2019-05-22T09:53:26.199Z,9.53
2019-05-22T09:57:33.018Z,11.03
2019-05-22T10:01:39.951Z,12.77
2019-05-22T10:05:47.341Z,12.03
2019-05-22T10:09:54.283Z,11.80
2019-05-22T10:14:01.888Z,11.07
2019-05-22T10:18:09.113Z,11.30
2019-05-22T10:22:17.276Z,10.67
2019-05-22T10:26:24.217Z,10.27
2019-05-22T10:30:31.463Z,10.10
2019-05-22T10:34:38.646Z,9.40
2019-05-22T10:38:46.548Z,6.77
2019-05-22T10:42:53.819Z,9.10
2019-05-22T10:47:00.847Z,9.40
2019-05-22T10:51:07.732Z,11.03
2019-05-22T10:55:16.923Z,33.13
2019-05-22T10:59:25.280Z,12.30
2019-05-22T11:03:33.399Z,13.23
2019-05-22T11:07:40.987Z,12.07
2019-05-22T11:11:48.035Z,13.97
2019-05-22T11:15:56.280Z,15.17
2019-05-22T11:20:03.553Z,15.07
2019-05-22T11:24:10.811Z,14.53
2019-05-22T11:28:17.618Z,15.90
2019-05-22T11:32:24.520Z,14.97
2019-05-22T11:36:34.289Z,14.33
2019-05-22T11:40:42.305Z,12.67
2019-05-22T11:44:49.089Z,12.90
2019-05-22T11:48:56.000Z,11.67
2019-05-22T11:53:02.989Z,13.97
2019-05-22T11:57:10.835Z,13.13
2019-05-22T12:01:18.232Z,13.13
2019-05-22T12:05:25.564Z,13.93
2019-05-22T12:09:33.156Z,13.27
2019-05-22T12:13:40.106Z,12.43
2019-05-22T12:17:47.387Z,11.40
2019-05-22T12:21:54.247Z,12.20
2019-05-22T12:26:01.479Z,11.67
2019-05-22T12:30:10.086Z,11.07
2019-05-22T12:34:17.009Z,11.60
2019-05-22T12:38:27.112Z,11.13
2019-05-22T12:42:33.929Z,10.03
2019-05-22T12:46:40.808Z,10.57
2019-05-22T12:50:48.069Z,11.10
2019-05-22T12:54:55.144Z,11.07
2019-05-22T12:59:02.130Z,11.40
2019-05-22T13:03:09.324Z,11.07
2019-05-22T13:07:16.558Z,11.87
2019-05-22T13:11:25.248Z,11.50
2019-05-22T13:15:35.284Z,13.03
2019-05-22T13:19:43.817Z,12.07
2019-05-22T13:23:53.492Z,11.43
2019-05-22T13:28:03.339Z,10.80
2019-05-22T13:32:12.210Z,10.50
2019-05-22T13:36:22.480Z,12.37
2019-05-22T13:40:30.403Z,12.53
2019-05-22T13:44:38.118Z,12.83
2019-05-22T13:48:45.055Z,14.93
2019-05-22T13:52:53.899Z,14.50
2019-05-22T13:57:00.889Z,13.20
2019-05-22T14:01:08.912Z,12.60
2019-05-22T14:05:17.430Z,12.03
2019-05-22T14:09:25.043Z,12.97
2019-05-22T14:13:32.013Z,10.90
2019-05-22T14:17:39.148Z,12.27
2019-05-22T14:21:51.835Z,12.63
2019-05-22T14:25:58.692Z,13.63
2019-05-22T14:30:07.733Z,13.67
2019-05-22T14:34:14.996Z,14.03
2019-05-22T14:38:22.320Z,14.03
2019-05-22T14:42:29.322Z,13.17
2019-05-22T14:46:36.414Z,14.30
2019-05-22T14:50:43.235Z,13.33
2019-05-22T14:54:50.786Z,12.97
2019-05-22T14:58:58.050Z,12.67
2019-05-22T15:03:06.730Z,11.43
2019-05-22T15:07:13.961Z,11.67
2019-05-22T15:11:21.205Z,13.67
2019-05-22T15:15:28.608Z,10.47
2019-05-22T15:19:35.424Z,11.03
2019-05-22T15:23:43.522Z,12.27
2019-05-22T15:27:51.044Z,11.17
2019-05-22T15:31:57.839Z,11.33
2019-05-22T15:36:08.106Z,10.53
2019-05-22T15:40:16.851Z,10.50
2019-05-22T15:44:25.034Z,12.30
2019-05-22T15:48:34.526Z,11.37
2019-05-22T15:52:43.201Z,10.30
2019-05-22T15:56:51.420Z,10.63
2019-05-22T16:01:00.564Z,10.67
2019-05-22T16:05:09.417Z,11.37
2019-05-22T16:09:18.036Z,11.27
2019-05-22T16:13:27.017Z,10.80
2019-05-22T16:17:35.791Z,12.07
2019-05-22T16:21:49.366Z,11.57
2019-05-22T16:25:56.567Z,10.87
2019-05-22T16:30:06.412Z,11.20
2019-05-22T16:34:16.471Z,11.60
2019-05-22T16:38:25.662Z,11.30
2019-05-22T16:42:34.983Z,10.50
2019-05-22T16:46:43.742Z,10.40
2019-05-22T16:50:52.780Z,10.00
2019-05-22T16:55:01.713Z,10.53
2019-05-22T16:59:12.672Z,14.20
2019-05-22T17:03:21.864Z,11.30
2019-05-22T17:07:32.783Z,10.57
2019-05-22T17:11:41.589Z,9.93
2019-05-22T17:15:49.301Z,10.33
2019-05-22T17:19:56.541Z,10.90
2019-05-22T17:24:08.550Z,10.30
2019-05-22T17:28:17.129Z,10.20
2019-05-22T17:32:26.569Z,10.20
2019-05-22T17:36:34.299Z,10.47
2019-05-22T17:40:42.383Z,9.83
2019-05-22T17:44:51.651Z,9.53
2019-05-22T17:49:00.515Z,10.33
2019-05-22T17:53:09.194Z,10.23
2019-05-22T17:57:17.040Z,9.77
2019-05-22T18:01:24.717Z,10.40
2019-05-22T18:05:33.564Z,10.23
2019-05-22T18:09:40.629Z,9.97
2019-05-22T18:14:04.113Z,9.30
2019-05-22T18:18:11.433Z,10.83
2019-05-22T18:22:18.504Z,9.63
2019-05-22T18:26:25.857Z,10.70
2019-05-22T18:30:35.509Z,10.17
2019-05-22T18:34:42.383Z,9.90
2019-05-22T18:38:49.386Z,10.70
2019-05-22T18:42:57.809Z,9.67
2019-05-22T18:47:06.027Z,11.17
2019-05-22T18:51:13.904Z,10.17
2019-05-22T18:55:21.518Z,9.90
2019-05-22T18:59:28.571Z,10.60
2019-05-22T19:03:36.220Z,10.27
2019-05-22T19:07:43.105Z,10.47
2019-05-22T19:11:52.454Z,9.67
2019-05-22T19:16:02.767Z,11.00
2019-05-22T19:20:10.351Z,10.33
2019-05-22T19:24:17.254Z,11.10
2019-05-22T19:28:40.462Z,11.60
2019-05-22T19:32:33.676Z,10.60
2019-05-22T19:36:40.462Z,12.07
2019-05-22T19:40:47.503Z,11.50
2019-05-22T19:45:01.024Z,11.23
2019-05-22T19:49:08.028Z,11.40
2019-05-22T19:53:19.169Z,12.67
2019-05-22T19:57:23.685Z,11.60
2019-05-22T20:01:59.173Z,12.60
2019-05-22T20:06:06.436Z,11.83
2019-05-22T20:10:14.041Z,11.67
2019-05-22T20:14:20.964Z,11.70
2019-05-22T20:18:28.232Z,11.90
2019-05-22T20:22:36.872Z,11.90
2019-05-22T20:26:43.812Z,12.13
2019-05-22T20:30:51.164Z,10.87
2019-05-22T20:34:57.993Z,37.57
2019-05-22T20:39:09.384Z,12.77
2019-05-22T20:43:16.934Z,12.20
2019-05-22T20:47:26.953Z,12.23
2019-05-22T20:51:35.088Z,12.07
2019-05-22T20:55:44.810Z,13.53
2019-05-22T20:59:52.249Z,12.47
2019-05-22T21:04:04.036Z,14.33
2019-05-22T21:08:16.136Z,13.60
2019-05-22T21:12:25.702Z,14.67
2019-05-22T21:16:33.004Z,13.97
2019-05-22T21:20:53.690Z,15.57
2019-05-22T21:24:49.850Z,16.00
2019-05-22T21:28:57.710Z,15.13
2019-05-22T21:33:05.356Z,15.83
2019-05-22T21:37:12.634Z,15.40
2019-05-22T21:41:22.056Z,15.97
2019-05-22T21:45:28.971Z,15.37
2019-05-22T21:49:38.785Z,16.37
2019-05-22T21:53:45.261Z,15.20
2019-05-22T21:57:52.392Z,16.60
2019-05-22T22:02:09.395Z,16.97
2019-05-22T22:06:16.665Z,16.03
2019-05-22T22:10:23.715Z,16.50
2019-05-22T22:14:30.800Z,16.97
2019-05-22T22:18:39.967Z,15.60
2019-05-22T22:22:49.178Z,15.83
2019-05-22T22:26:56.851Z,15.23
2019-05-22T22:31:07.401Z,14.90
2019-05-22T22:35:16.514Z,16.67
2019-05-22T22:39:25.974Z,15.97
2019-05-22T22:43:36.990Z,15.17
2019-05-22T22:47:46.108Z,15.67
2019-05-22T22:51:53.230Z,16.43
2019-05-22T22:56:00.813Z,16.57
2019-05-22T23:00:13.335Z,16.17
2019-05-22T23:04:23.974Z,16.70
2019-05-22T23:08:33.748Z,16.20
2019-05-22T23:12:43.014Z,17.17
2019-05-22T23:16:51.053Z,16.93
2019-05-22T23:20:55.495Z,16.47
2019-05-22T23:25:04.199Z,16.57
2019-05-22T23:29:12.978Z,16.70
2019-05-22T23:33:19.823Z,16.40
2019-05-22T23:37:28.060Z,15.77
2019-05-22T23:41:37.063Z,15.57
2019-05-22T23:45:43.879Z,16.80
2019-05-22T23:49:51.460Z,17.93
2019-05-22T23:54:00.447Z,18.80
2019-05-22T23:58:08.808Z,19.77
